sensor_id;sensor_type;location;lat;lon;timestamp;P1;durP1;ratioP1;P2;durP2;ratioP2
66143;SDS011;52947;50.842;6.084;2023-04-24T00:02:09;2.60;;;1.77;;
66143;SDS011;52947;50.842;6.084;2023-04-24T00:04:37;4.07;;;1.88;;
66143;SDS011;52947;50.842;6.084;2023-04-24T00:07:06;3.33;;;2.38;;
66143;SDS011;52947;50.842;6.084;2023-04-24T00:09:35;3.40;;;2.30;;
66143;SDS011;52947;50.842;6.084;2023-04-24T00:12:04;2.35;;;1.77;;
66143;SDS011;52947;50.842;6.084;2023-04-24T00:17:01;7.68;;;2.55;;
66143;SDS011;52947;50.842;6.084;2023-04-24T00:19:29;5.10;;;2.93;;
66143;SDS011;52947;50.842;6.084;2023-04-24T00:21:57;12.45;;;3.33;;
66143;SDS011;52947;50.842;6.084;2023-04-24T00:24:25;5.65;;;2.85;;
66143;SDS011;52947;50.842;6.084;2023-04-24T00:26:53;6.05;;;2.70;;
66143;SDS011;52947;50.842;6.084;2023-04-24T00:29:22;6.13;;;2.70;;
66143;SDS011;52947;50.842;6.084;2023-04-24T00:31:50;5.05;;;2.80;;
66143;SDS011;52947;50.842;6.084;2023-04-24T00:34:18;7.80;;;3.28;;
66143;SDS011;52947;50.842;6.084;2023-04-24T00:36:46;4.43;;;2.45;;
66143;SDS011;52947;50.842;6.084;2023-04-24T00:39:17;5.45;;;3.05;;
66143;SDS011;52947;50.842;6.084;2023-04-24T00:41:45;4.30;;;2.80;;
66143;SDS011;52947;50.842;6.084;2023-04-24T00:44:13;5.60;;;3.13;;
66143;SDS011;52947;50.842;6.084;2023-04-24T00:46:42;6.75;;;3.65;;
66143;SDS011;52947;50.842;6.084;2023-04-24T00:49:11;5.43;;;3.35;;
66143;SDS011;52947;50.842;6.084;2023-04-24T00:51:39;5.63;;;3.10;;
66143;SDS011;52947;50.842;6.084;2023-04-24T00:54:12;7.15;;;4.35;;
66143;SDS011;52947;50.842;6.084;2023-04-24T00:56:40;11.65;;;4.30;;
66143;SDS011;52947;50.842;6.084;2023-04-24T00:59:09;6.90;;;4.00;;
66143;SDS011;52947;50.842;6.084;2023-04-24T01:01:37;6.95;;;4.65;;
66143;SDS011;52947;50.842;6.084;2023-04-24T01:04:09;8.32;;;5.25;;
66143;SDS011;52947;50.842;6.084;2023-04-24T01:06:39;8.30;;;4.20;;
66143;SDS011;52947;50.842;6.084;2023-04-24T01:09:07;5.27;;;4.20;;
66143;SDS011;52947;50.842;6.084;2023-04-24T01:11:36;7.53;;;4.93;;
66143;SDS011;52947;50.842;6.084;2023-04-24T01:14:05;9.27;;;5.18;;
66143;SDS011;52947;50.842;6.084;2023-04-24T01:16:33;10.23;;;6.13;;
66143;SDS011;52947;50.842;6.084;2023-04-24T01:19:02;10.60;;;5.63;;
66143;SDS011;52947;50.842;6.084;2023-04-24T01:21:31;9.93;;;5.40;;
66143;SDS011;52947;50.842;6.084;2023-04-24T01:24:05;12.95;;;5.90;;
66143;SDS011;52947;50.842;6.084;2023-04-24T01:26:34;11.10;;;5.82;;
66143;SDS011;52947;50.842;6.084;2023-04-24T01:29:02;7.90;;;5.43;;
66143;SDS011;52947;50.842;6.084;2023-04-24T01:31:29;9.45;;;5.32;;
66143;SDS011;52947;50.842;6.084;2023-04-24T01:33:58;10.97;;;6.50;;
66143;SDS011;52947;50.842;6.084;2023-04-24T01:36:26;7.50;;;4.80;;
66143;SDS011;52947;50.842;6.084;2023-04-24T01:38:56;10.38;;;5.32;;
66143;SDS011;52947;50.842;6.084;2023-04-24T01:41:26;10.50;;;5.43;;
66143;SDS011;52947;50.842;6.084;2023-04-24T01:43:54;10.98;;;5.65;;
66143;SDS011;52947;50.842;6.084;2023-04-24T01:46:24;9.05;;;5.45;;
66143;SDS011;52947;50.842;6.084;2023-04-24T01:48:52;7.57;;;4.93;;
66143;SDS011;52947;50.842;6.084;2023-04-24T01:51:21;9.98;;;5.88;;
66143;SDS011;52947;50.842;6.084;2023-04-24T01:53:49;9.25;;;4.90;;
66143;SDS011;52947;50.842;6.084;2023-04-24T01:56:17;10.40;;;5.30;;
66143;SDS011;52947;50.842;6.084;2023-04-24T01:58:47;8.98;;;5.65;;
66143;SDS011;52947;50.842;6.084;2023-04-24T02:01:17;8.88;;;5.10;;
66143;SDS011;52947;50.842;6.084;2023-04-24T02:03:46;14.40;;;5.45;;
66143;SDS011;52947;50.842;6.084;2023-04-24T02:06:14;7.68;;;5.03;;
66143;SDS011;52947;50.842;6.084;2023-04-24T02:08:42;8.27;;;5.28;;
66143;SDS011;52947;50.842;6.084;2023-04-24T02:11:10;10.38;;;5.55;;
66143;SDS011;52947;50.842;6.084;2023-04-24T02:13:38;11.45;;;5.25;;
66143;SDS011;52947;50.842;6.084;2023-04-24T02:16:07;9.02;;;5.80;;
66143;SDS011;52947;50.842;6.084;2023-04-24T02:21:03;17.00;;;6.53;;
66143;SDS011;52947;50.842;6.084;2023-04-24T02:23:31;15.50;;;6.78;;
66143;SDS011;52947;50.842;6.084;2023-04-24T02:25:59;10.52;;;5.45;;
66143;SDS011;52947;50.842;6.084;2023-04-24T02:28:27;9.52;;;5.68;;
66143;SDS011;52947;50.842;6.084;2023-04-24T02:30:55;9.00;;;6.15;;
66143;SDS011;52947;50.842;6.084;2023-04-24T02:33:25;12.90;;;6.13;;
66143;SDS011;52947;50.842;6.084;2023-04-24T02:35:53;7.93;;;5.40;;
66143;SDS011;52947;50.842;6.084;2023-04-24T02:38:21;12.90;;;6.05;;
66143;SDS011;52947;50.842;6.084;2023-04-24T02:40:48;12.30;;;5.90;;
66143;SDS011;52947;50.842;6.084;2023-04-24T02:43:16;8.45;;;5.35;;
66143;SDS011;52947;50.842;6.084;2023-04-24T02:45:44;9.68;;;6.20;;
66143;SDS011;52947;50.842;6.084;2023-04-24T02:48:12;6.97;;;4.38;;
66143;SDS011;52947;50.842;6.084;2023-04-24T02:50:41;9.13;;;5.72;;
66143;SDS011;52947;50.842;6.084;2023-04-24T02:53:09;12.43;;;6.75;;
66143;SDS011;52947;50.842;6.084;2023-04-24T02:55:37;8.65;;;5.70;;
66143;SDS011;52947;50.842;6.084;2023-04-24T02:58:06;11.73;;;6.32;;
66143;SDS011;52947;50.842;6.084;2023-04-24T03:00:33;9.68;;;5.53;;
66143;SDS011;52947;50.842;6.084;2023-04-24T03:03:01;10.98;;;5.90;;
66143;SDS011;52947;50.842;6.084;2023-04-24T03:05:29;12.50;;;6.65;;
66143;SDS011;52947;50.842;6.084;2023-04-24T03:07:59;11.32;;;5.88;;
66143;SDS011;52947;50.842;6.084;2023-04-24T03:10:27;11.73;;;6.43;;
66143;SDS011;52947;50.842;6.084;2023-04-24T03:12:55;8.65;;;5.60;;
66143;SDS011;52947;50.842;6.084;2023-04-24T03:15:23;9.35;;;5.00;;
66143;SDS011;52947;50.842;6.084;2023-04-24T03:17:51;11.85;;;5.57;;
66143;SDS011;52947;50.842;6.084;2023-04-24T03:20:22;12.13;;;6.55;;
66143;SDS011;52947;50.842;6.084;2023-04-24T03:22:50;9.23;;;5.85;;
66143;SDS011;52947;50.842;6.084;2023-04-24T03:25:20;11.07;;;6.43;;
66143;SDS011;52947;50.842;6.084;2023-04-24T03:30:33;9.73;;;5.32;;
66143;SDS011;52947;50.842;6.084;2023-04-24T03:33:01;10.55;;;5.72;;
66143;SDS011;52947;50.842;6.084;2023-04-24T03:35:33;8.10;;;5.35;;
66143;SDS011;52947;50.842;6.084;2023-04-24T03:38:06;13.50;;;5.53;;
66143;SDS011;52947;50.842;6.084;2023-04-24T03:40:42;9.77;;;4.80;;
66143;SDS011;52947;50.842;6.084;2023-04-24T03:43:22;7.82;;;5.10;;
66143;SDS011;52947;50.842;6.084;2023-04-24T03:45:50;10.00;;;4.75;;
66143;SDS011;52947;50.842;6.084;2023-04-24T03:48:19;8.25;;;5.13;;
66143;SDS011;52947;50.842;6.084;2023-04-24T03:50:47;10.63;;;5.05;;
66143;SDS011;52947;50.842;6.084;2023-04-24T03:53:14;8.68;;;4.38;;
66143;SDS011;52947;50.842;6.084;2023-04-24T03:55:44;11.10;;;5.60;;
66143;SDS011;52947;50.842;6.084;2023-04-24T03:58:13;8.95;;;5.68;;
66143;SDS011;52947;50.842;6.084;2023-04-24T04:00:41;12.50;;;5.73;;
66143;SDS011;52947;50.842;6.084;2023-04-24T04:05:59;8.88;;;4.82;;
66143;SDS011;52947;50.842;6.084;2023-04-24T04:08:27;9.90;;;5.70;;
66143;SDS011;52947;50.842;6.084;2023-04-24T04:10:56;9.02;;;5.85;;
66143;SDS011;52947;50.842;6.084;2023-04-24T04:13:24;10.48;;;5.88;;
66143;SDS011;52947;50.842;6.084;2023-04-24T04:15:52;8.38;;;5.07;;
66143;SDS011;52947;50.842;6.084;2023-04-24T04:18:20;9.55;;;5.60;;
66143;SDS011;52947;50.842;6.084;2023-04-24T04:20:48;12.20;;;6.55;;
66143;SDS011;52947;50.842;6.084;2023-04-24T04:23:16;11.85;;;6.18;;
66143;SDS011;52947;50.842;6.084;2023-04-24T04:26:05;8.13;;;6.07;;
66143;SDS011;52947;50.842;6.084;2023-04-24T04:28:50;12.23;;;6.53;;
66143;SDS011;52947;50.842;6.084;2023-04-24T04:31:19;11.60;;;6.18;;
66143;SDS011;52947;50.842;6.084;2023-04-24T04:33:48;11.20;;;5.88;;
66143;SDS011;52947;50.842;6.084;2023-04-24T04:36:16;10.98;;;6.03;;
66143;SDS011;52947;50.842;6.084;2023-04-24T04:38:50;11.85;;;7.13;;
66143;SDS011;52947;50.842;6.084;2023-04-24T04:41:37;9.52;;;6.22;;
66143;SDS011;52947;50.842;6.084;2023-04-24T04:44:08;10.15;;;5.95;;
66143;SDS011;52947;50.842;6.084;2023-04-24T04:46:36;11.05;;;6.03;;
66143;SDS011;52947;50.842;6.084;2023-04-24T04:49:11;11.75;;;6.40;;
66143;SDS011;52947;50.842;6.084;2023-04-24T04:51:39;8.10;;;5.40;;
66143;SDS011;52947;50.842;6.084;2023-04-24T04:54:09;10.88;;;5.88;;
66143;SDS011;52947;50.842;6.084;2023-04-24T04:56:38;11.07;;;6.15;;
66143;SDS011;52947;50.842;6.084;2023-04-24T04:59:06;9.73;;;5.70;;
66143;SDS011;52947;50.842;6.084;2023-04-24T05:01:36;8.43;;;6.10;;
66143;SDS011;52947;50.842;6.084;2023-04-24T05:04:06;10.10;;;6.45;;
66143;SDS011;52947;50.842;6.084;2023-04-24T05:06:36;8.43;;;5.45;;
66143;SDS011;52947;50.842;6.084;2023-04-24T05:09:05;7.97;;;4.78;;
66143;SDS011;52947;50.842;6.084;2023-04-24T05:11:55;7.35;;;4.88;;
66143;SDS011;52947;50.842;6.084;2023-04-24T05:14:24;12.15;;;5.28;;
66143;SDS011;52947;50.842;6.084;2023-04-24T05:16:52;7.70;;;4.03;;
66143;SDS011;52947;50.842;6.084;2023-04-24T05:19:23;9.05;;;4.93;;
66143;SDS011;52947;50.842;6.084;2023-04-24T05:21:51;9.00;;;4.68;;
66143;SDS011;52947;50.842;6.084;2023-04-24T05:24:19;6.93;;;4.75;;
66143;SDS011;52947;50.842;6.084;2023-04-24T05:27:07;5.88;;;4.18;;
66143;SDS011;52947;50.842;6.084;2023-04-24T05:29:38;5.78;;;3.72;;
66143;SDS011;52947;50.842;6.084;2023-04-24T05:32:08;8.10;;;4.30;;
66143;SDS011;52947;50.842;6.084;2023-04-24T05:34:36;5.32;;;3.67;;
66143;SDS011;52947;50.842;6.084;2023-04-24T05:37:04;8.18;;;4.47;;
66143;SDS011;52947;50.842;6.084;2023-04-24T05:39:34;8.13;;;4.40;;
66143;SDS011;52947;50.842;6.084;2023-04-24T05:42:02;7.30;;;3.90;;
66143;SDS011;52947;50.842;6.084;2023-04-24T05:44:32;6.35;;;4.40;;
66143;SDS011;52947;50.842;6.084;2023-04-24T05:47:00;6.35;;;4.63;;
66143;SDS011;52947;50.842;6.084;2023-04-24T05:49:28;5.10;;;3.80;;
66143;SDS011;52947;50.842;6.084;2023-04-24T05:51:56;7.43;;;3.58;;
66143;SDS011;52947;50.842;6.084;2023-04-24T05:54:24;7.40;;;3.90;;
66143;SDS011;52947;50.842;6.084;2023-04-24T05:56:52;5.93;;;3.50;;
66143;SDS011;52947;50.842;6.084;2023-04-24T06:04:29;6.72;;;3.53;;
66143;SDS011;52947;50.842;6.084;2023-04-24T06:06:58;6.95;;;3.70;;
66143;SDS011;52947;50.842;6.084;2023-04-24T06:09:26;6.03;;;3.53;;
66143;SDS011;52947;50.842;6.084;2023-04-24T06:11:54;6.18;;;4.10;;
66143;SDS011;52947;50.842;6.084;2023-04-24T06:14:28;7.35;;;4.03;;
66143;SDS011;52947;50.842;6.084;2023-04-24T06:17:19;5.78;;;3.60;;
66143;SDS011;52947;50.842;6.084;2023-04-24T06:19:48;7.18;;;3.55;;
66143;SDS011;52947;50.842;6.084;2023-04-24T06:22:20;7.40;;;4.40;;
66143;SDS011;52947;50.842;6.084;2023-04-24T06:24:48;7.55;;;4.15;;
66143;SDS011;52947;50.842;6.084;2023-04-24T06:27:16;5.70;;;3.58;;
66143;SDS011;52947;50.842;6.084;2023-04-24T06:29:44;6.32;;;4.10;;
66143;SDS011;52947;50.842;6.084;2023-04-24T06:32:12;6.07;;;3.45;;
66143;SDS011;52947;50.842;6.084;2023-04-24T06:34:41;8.68;;;4.43;;
66143;SDS011;52947;50.842;6.084;2023-04-24T06:37:09;5.80;;;3.63;;
66143;SDS011;52947;50.842;6.084;2023-04-24T06:39:37;5.50;;;3.97;;
66143;SDS011;52947;50.842;6.084;2023-04-24T06:42:05;8.73;;;3.15;;
66143;SDS011;52947;50.842;6.084;2023-04-24T06:44:34;3.13;;;2.25;;
66143;SDS011;52947;50.842;6.084;2023-04-24T06:47:07;4.85;;;2.63;;
66143;SDS011;52947;50.842;6.084;2023-04-24T06:49:36;2.92;;;1.85;;
66143;SDS011;52947;50.842;6.084;2023-04-24T06:52:06;3.53;;;2.30;;
66143;SDS011;52947;50.842;6.084;2023-04-24T06:54:33;3.03;;;2.00;;
66143;SDS011;52947;50.842;6.084;2023-04-24T06:57:01;2.60;;;1.98;;
66143;SDS011;52947;50.842;6.084;2023-04-24T06:59:29;3.35;;;2.08;;
66143;SDS011;52947;50.842;6.084;2023-04-24T07:01:57;2.75;;;2.22;;
66143;SDS011;52947;50.842;6.084;2023-04-24T07:04:25;8.32;;;2.78;;
66143;SDS011;52947;50.842;6.084;2023-04-24T07:06:54;4.72;;;2.58;;
66143;SDS011;52947;50.842;6.084;2023-04-24T07:11:53;4.95;;;3.28;;
66143;SDS011;52947;50.842;6.084;2023-04-24T07:16:50;7.07;;;3.10;;
66143;SDS011;52947;50.842;6.084;2023-04-24T07:19:18;6.20;;;3.35;;
66143;SDS011;52947;50.842;6.084;2023-04-24T07:21:46;4.90;;;2.92;;
66143;SDS011;52947;50.842;6.084;2023-04-24T07:24:13;6.32;;;3.13;;
66143;SDS011;52947;50.842;6.084;2023-04-24T07:26:43;5.60;;;3.00;;
66143;SDS011;52947;50.842;6.084;2023-04-24T07:29:12;3.58;;;2.10;;
66143;SDS011;52947;50.842;6.084;2023-04-24T07:31:41;3.40;;;2.20;;
66143;SDS011;52947;50.842;6.084;2023-04-24T07:34:09;3.85;;;2.65;;
66143;SDS011;52947;50.842;6.084;2023-04-24T07:36:36;5.32;;;2.90;;
66143;SDS011;52947;50.842;6.084;2023-04-24T07:39:05;6.10;;;2.65;;
66143;SDS011;52947;50.842;6.084;2023-04-24T07:41:33;5.75;;;3.10;;
66143;SDS011;52947;50.842;6.084;2023-04-24T07:44:02;7.75;;;3.30;;
66143;SDS011;52947;50.842;6.084;2023-04-24T07:46:30;7.40;;;3.88;;
66143;SDS011;52947;50.842;6.084;2023-04-24T07:48:58;7.18;;;3.55;;
66143;SDS011;52947;50.842;6.084;2023-04-24T07:51:39;6.43;;;3.83;;
66143;SDS011;52947;50.842;6.084;2023-04-24T07:56:35;6.30;;;4.32;;
66143;SDS011;52947;50.842;6.084;2023-04-24T07:59:06;8.07;;;4.85;;
66143;SDS011;52947;50.842;6.084;2023-04-24T08:01:36;8.85;;;4.90;;
66143;SDS011;52947;50.842;6.084;2023-04-24T08:04:03;6.15;;;4.55;;
66143;SDS011;52947;50.842;6.084;2023-04-24T08:06:32;10.75;;;5.15;;
66143;SDS011;52947;50.842;6.084;2023-04-24T08:09:00;9.40;;;5.68;;
66143;SDS011;52947;50.842;6.084;2023-04-24T08:11:28;12.63;;;4.90;;
66143;SDS011;52947;50.842;6.084;2023-04-24T08:13:56;8.30;;;5.28;;
66143;SDS011;52947;50.842;6.084;2023-04-24T08:16:25;9.07;;;5.47;;
66143;SDS011;52947;50.842;6.084;2023-04-24T08:18:55;9.85;;;5.57;;
66143;SDS011;52947;50.842;6.084;2023-04-24T08:21:23;10.50;;;5.07;;
66143;SDS011;52947;50.842;6.084;2023-04-24T08:23:53;12.05;;;5.72;;
66143;SDS011;52947;50.842;6.084;2023-04-24T08:26:21;7.03;;;5.30;;
66143;SDS011;52947;50.842;6.084;2023-04-24T08:28:49;8.00;;;5.65;;
66143;SDS011;52947;50.842;6.084;2023-04-24T08:31:17;7.88;;;4.80;;
66143;SDS011;52947;50.842;6.084;2023-04-24T08:33:46;6.90;;;4.60;;
66143;SDS011;52947;50.842;6.084;2023-04-24T08:38:42;6.68;;;4.18;;
66143;SDS011;52947;50.842;6.084;2023-04-24T08:41:10;8.07;;;4.13;;
66143;SDS011;52947;50.842;6.084;2023-04-24T08:43:38;5.82;;;3.60;;
66143;SDS011;52947;50.842;6.084;2023-04-24T08:46:07;3.90;;;2.90;;
66143;SDS011;52947;50.842;6.084;2023-04-24T08:48:38;7.72;;;3.13;;
66143;SDS011;52947;50.842;6.084;2023-04-24T08:51:08;7.13;;;3.20;;
66143;SDS011;52947;50.842;6.084;2023-04-24T08:53:37;6.20;;;3.53;;
66143;SDS011;52947;50.842;6.084;2023-04-24T08:56:05;6.53;;;3.95;;
66143;SDS011;52947;50.842;6.084;2023-04-24T08:58:33;5.17;;;3.50;;
66143;SDS011;52947;50.842;6.084;2023-04-24T09:01:03;5.60;;;3.42;;
66143;SDS011;52947;50.842;6.084;2023-04-24T09:03:31;6.45;;;3.30;;
66143;SDS011;52947;50.842;6.084;2023-04-24T09:06:01;7.50;;;3.55;;
66143;SDS011;52947;50.842;6.084;2023-04-24T09:08:31;7.00;;;3.95;;
66143;SDS011;52947;50.842;6.084;2023-04-24T09:11:00;7.57;;;4.47;;
66143;SDS011;52947;50.842;6.084;2023-04-24T09:13:30;5.93;;;3.75;;
66143;SDS011;52947;50.842;6.084;2023-04-24T09:15:58;7.90;;;4.00;;
66143;SDS011;52947;50.842;6.084;2023-04-24T09:18:27;9.00;;;3.75;;
66143;SDS011;52947;50.842;6.084;2023-04-24T09:20:59;9.23;;;4.00;;
66143;SDS011;52947;50.842;6.084;2023-04-24T09:23:28;5.75;;;3.45;;
66143;SDS011;52947;50.842;6.084;2023-04-24T09:25:58;5.70;;;3.47;;
66143;SDS011;52947;50.842;6.084;2023-04-24T09:28:29;8.40;;;3.78;;
66143;SDS011;52947;50.842;6.084;2023-04-24T09:31:04;5.75;;;3.85;;
66143;SDS011;52947;50.842;6.084;2023-04-24T09:33:34;10.98;;;4.05;;
66143;SDS011;52947;50.842;6.084;2023-04-24T09:36:02;8.20;;;4.32;;
66143;SDS011;52947;50.842;6.084;2023-04-24T09:38:32;7.88;;;4.90;;
66143;SDS011;52947;50.842;6.084;2023-04-24T09:41:04;9.57;;;4.95;;
66143;SDS011;52947;50.842;6.084;2023-04-24T09:43:34;14.07;;;6.85;;
66143;SDS011;52947;50.842;6.084;2023-04-24T09:46:04;13.45;;;6.13;;
66143;SDS011;52947;50.842;6.084;2023-04-24T09:48:35;14.40;;;6.82;;
66143;SDS011;52947;50.842;6.084;2023-04-24T09:51:04;12.00;;;5.78;;
66143;SDS011;52947;50.842;6.084;2023-04-24T09:53:36;13.32;;;5.75;;
66143;SDS011;52947;50.842;6.084;2023-04-24T09:56:11;10.10;;;5.78;;
66143;SDS011;52947;50.842;6.084;2023-04-24T09:58:39;11.57;;;5.75;;
66143;SDS011;52947;50.842;6.084;2023-04-24T10:01:07;10.50;;;4.07;;
66143;SDS011;52947;50.842;6.084;2023-04-24T10:03:35;10.32;;;4.03;;
66143;SDS011;52947;50.842;6.084;2023-04-24T10:06:04;8.73;;;4.28;;
66143;SDS011;52947;50.842;6.084;2023-04-24T10:08:36;7.57;;;3.92;;
66143;SDS011;52947;50.842;6.084;2023-04-24T10:11:04;12.48;;;3.70;;
66143;SDS011;52947;50.842;6.084;2023-04-24T10:13:34;7.35;;;3.25;;
66143;SDS011;52947;50.842;6.084;2023-04-24T10:16:03;10.43;;;3.47;;
66143;SDS011;52947;50.842;6.084;2023-04-24T10:18:31;9.83;;;3.93;;
66143;SDS011;52947;50.842;6.084;2023-04-24T10:20:59;8.48;;;3.60;;
66143;SDS011;52947;50.842;6.084;2023-04-24T10:23:28;8.10;;;4.20;;
66143;SDS011;52947;50.842;6.084;2023-04-24T10:25:57;9.45;;;3.58;;
66143;SDS011;52947;50.842;6.084;2023-04-24T10:28:27;9.13;;;3.30;;
66143;SDS011;52947;50.842;6.084;2023-04-24T10:30:59;6.07;;;3.17;;
66143;SDS011;52947;50.842;6.084;2023-04-24T10:33:28;6.70;;;3.50;;
66143;SDS011;52947;50.842;6.084;2023-04-24T10:35:57;11.32;;;4.30;;
66143;SDS011;52947;50.842;6.084;2023-04-24T10:38:26;12.32;;;4.22;;
66143;SDS011;52947;50.842;6.084;2023-04-24T10:43:25;10.80;;;3.90;;
66143;SDS011;52947;50.842;6.084;2023-04-24T10:46:01;10.27;;;4.30;;
66143;SDS011;52947;50.842;6.084;2023-04-24T10:48:30;10.88;;;4.00;;
66143;SDS011;52947;50.842;6.084;2023-04-24T10:50:58;8.88;;;3.92;;
66143;SDS011;52947;50.842;6.084;2023-04-24T10:53:27;11.25;;;4.43;;
66143;SDS011;52947;50.842;6.084;2023-04-24T10:55:57;10.07;;;4.60;;
66143;SDS011;52947;50.842;6.084;2023-04-24T10:58:35;15.35;;;4.40;;
66143;SDS011;52947;50.842;6.084;2023-04-24T11:01:06;11.98;;;4.82;;
66143;SDS011;52947;50.842;6.084;2023-04-24T11:03:34;11.48;;;4.47;;
66143;SDS011;52947;50.842;6.084;2023-04-24T11:06:04;9.52;;;4.70;;
66143;SDS011;52947;50.842;6.084;2023-04-24T11:08:36;13.15;;;5.20;;
66143;SDS011;52947;50.842;6.084;2023-04-24T11:11:09;12.82;;;5.03;;
66143;SDS011;52947;50.842;6.084;2023-04-24T11:16:31;7.03;;;3.67;;
66143;SDS011;52947;50.842;6.084;2023-04-24T11:19:02;10.77;;;3.78;;
66143;SDS011;52947;50.842;6.084;2023-04-24T11:21:32;12.07;;;3.72;;
66143;SDS011;52947;50.842;6.084;2023-04-24T11:24:22;8.77;;;3.90;;
66143;SDS011;52947;50.842;6.084;2023-04-24T11:26:51;13.88;;;4.20;;
66143;SDS011;52947;50.842;6.084;2023-04-24T11:34:20;13.82;;;4.25;;
66143;SDS011;52947;50.842;6.084;2023-04-24T11:36:48;9.02;;;4.03;;
66143;SDS011;52947;50.842;6.084;2023-04-24T11:39:16;11.48;;;3.83;;
66143;SDS011;52947;50.842;6.084;2023-04-24T11:41:44;9.73;;;3.67;;
66143;SDS011;52947;50.842;6.084;2023-04-24T11:44:12;8.48;;;3.40;;
66143;SDS011;52947;50.842;6.084;2023-04-24T11:49:11;7.78;;;3.53;;
66143;SDS011;52947;50.842;6.084;2023-04-24T11:51:39;12.07;;;3.97;;
66143;SDS011;52947;50.842;6.084;2023-04-24T11:54:18;13.60;;;4.18;;
66143;SDS011;52947;50.842;6.084;2023-04-24T11:56:46;8.50;;;3.95;;
66143;SDS011;52947;50.842;6.084;2023-04-24T11:59:14;11.32;;;3.88;;
66143;SDS011;52947;50.842;6.084;2023-04-24T12:01:43;12.80;;;4.22;;
66143;SDS011;52947;50.842;6.084;2023-04-24T12:04:13;12.13;;;4.40;;
66143;SDS011;52947;50.842;6.084;2023-04-24T12:09:27;10.32;;;4.53;;
66143;SDS011;52947;50.842;6.084;2023-04-24T12:11:56;14.32;;;4.45;;
66143;SDS011;52947;50.842;6.084;2023-04-24T12:14:24;13.68;;;4.82;;
66143;SDS011;52947;50.842;6.084;2023-04-24T12:16:52;11.45;;;6.00;;
66143;SDS011;52947;50.842;6.084;2023-04-24T12:19:21;8.73;;;4.50;;
66143;SDS011;52947;50.842;6.084;2023-04-24T12:22:00;9.32;;;5.00;;
66143;SDS011;52947;50.842;6.084;2023-04-24T12:24:29;11.15;;;4.50;;
66143;SDS011;52947;50.842;6.084;2023-04-24T12:26:57;10.85;;;4.22;;
66143;SDS011;52947;50.842;6.084;2023-04-24T12:29:27;13.00;;;6.18;;
66143;SDS011;52947;50.842;6.084;2023-04-24T12:31:55;10.65;;;5.30;;
66143;SDS011;52947;50.842;6.084;2023-04-24T12:34:25;10.05;;;4.68;;
66143;SDS011;52947;50.842;6.084;2023-04-24T12:36:53;10.93;;;4.13;;
66143;SDS011;52947;50.842;6.084;2023-04-24T12:39:20;6.85;;;4.00;;
66143;SDS011;52947;50.842;6.084;2023-04-24T12:41:54;7.40;;;4.00;;
66143;SDS011;52947;50.842;6.084;2023-04-24T12:44:30;7.47;;;3.63;;
66143;SDS011;52947;50.842;6.084;2023-04-24T12:46:59;7.80;;;3.40;;
66143;SDS011;52947;50.842;6.084;2023-04-24T12:49:29;9.13;;;3.50;;
66143;SDS011;52947;50.842;6.084;2023-04-24T12:51:57;6.28;;;3.55;;
66143;SDS011;52947;50.842;6.084;2023-04-24T12:54:26;9.98;;;4.95;;
66143;SDS011;52947;50.842;6.084;2023-04-24T12:56:59;8.65;;;4.40;;
66143;SDS011;52947;50.842;6.084;2023-04-24T12:59:27;5.25;;;3.22;;
66143;SDS011;52947;50.842;6.084;2023-04-24T13:01:55;10.02;;;4.88;;
66143;SDS011;52947;50.842;6.084;2023-04-24T13:04:23;8.98;;;3.55;;
66143;SDS011;52947;50.842;6.084;2023-04-24T13:06:53;6.13;;;3.33;;
66143;SDS011;52947;50.842;6.084;2023-04-24T13:09:21;11.75;;;5.97;;
66143;SDS011;52947;50.842;6.084;2023-04-24T13:11:50;10.73;;;4.40;;
66143;SDS011;52947;50.842;6.084;2023-04-24T13:14:18;7.47;;;4.47;;
66143;SDS011;52947;50.842;6.084;2023-04-24T13:16:45;8.32;;;4.63;;
66143;SDS011;52947;50.842;6.084;2023-04-24T13:19:13;8.18;;;3.45;;
66143;SDS011;52947;50.842;6.084;2023-04-24T13:21:41;6.00;;;3.53;;
66143;SDS011;52947;50.842;6.084;2023-04-24T13:24:11;9.50;;;3.58;;
66143;SDS011;52947;50.842;6.084;2023-04-24T13:26:39;5.97;;;3.50;;
66143;SDS011;52947;50.842;6.084;2023-04-24T13:29:07;10.40;;;4.20;;
66143;SDS011;52947;50.842;6.084;2023-04-24T13:31:35;5.93;;;3.47;;
66143;SDS011;52947;50.842;6.084;2023-04-24T13:34:03;5.55;;;3.17;;
66143;SDS011;52947;50.842;6.084;2023-04-24T13:36:31;5.68;;;3.00;;
66143;SDS011;52947;50.842;6.084;2023-04-24T13:38:59;7.82;;;3.47;;
66143;SDS011;52947;50.842;6.084;2023-04-24T13:41:28;7.93;;;3.65;;
66143;SDS011;52947;50.842;6.084;2023-04-24T13:46:23;6.43;;;3.08;;
66143;SDS011;52947;50.842;6.084;2023-04-24T13:48:51;5.38;;;3.60;;
66143;SDS011;52947;50.842;6.084;2023-04-24T13:51:19;9.93;;;5.82;;
66143;SDS011;52947;50.842;6.084;2023-04-24T13:53:47;8.30;;;3.88;;
66143;SDS011;52947;50.842;6.084;2023-04-24T13:56:15;10.13;;;4.10;;
66143;SDS011;52947;50.842;6.084;2023-04-24T13:58:45;11.60;;;4.97;;
66143;SDS011;52947;50.842;6.084;2023-04-24T14:03:41;6.87;;;4.10;;
66143;SDS011;52947;50.842;6.084;2023-04-24T14:06:10;9.20;;;3.25;;
66143;SDS011;52947;50.842;6.084;2023-04-24T14:08:38;9.00;;;3.45;;
66143;SDS011;52947;50.842;6.084;2023-04-24T14:11:06;6.15;;;3.78;;
66143;SDS011;52947;50.842;6.084;2023-04-24T14:13:35;6.32;;;3.58;;
66143;SDS011;52947;50.842;6.084;2023-04-24T14:16:05;6.90;;;3.95;;
66143;SDS011;52947;50.842;6.084;2023-04-24T14:18:33;15.18;;;11.13;;
66143;SDS011;52947;50.842;6.084;2023-04-24T14:21:02;9.82;;;3.95;;
66143;SDS011;52947;50.842;6.084;2023-04-24T14:23:31;8.18;;;3.05;;
66143;SDS011;52947;50.842;6.084;2023-04-24T14:25:59;6.88;;;2.97;;
66143;SDS011;52947;50.842;6.084;2023-04-24T14:28:27;6.13;;;2.95;;
66143;SDS011;52947;50.842;6.084;2023-04-24T14:30:55;5.80;;;2.65;;
66143;SDS011;52947;50.842;6.084;2023-04-24T14:33:24;7.25;;;3.20;;
66143;SDS011;52947;50.842;6.084;2023-04-24T14:35:52;6.25;;;3.03;;
66143;SDS011;52947;50.842;6.084;2023-04-24T14:38:20;7.07;;;2.85;;
66143;SDS011;52947;50.842;6.084;2023-04-24T14:40:49;11.75;;;3.33;;
66143;SDS011;52947;50.842;6.084;2023-04-24T14:43:32;42.88;;;31.80;;
66143;SDS011;52947;50.842;6.084;2023-04-24T14:46:01;6.47;;;3.70;;
66143;SDS011;52947;50.842;6.084;2023-04-24T14:48:31;6.70;;;3.05;;
66143;SDS011;52947;50.842;6.084;2023-04-24T14:50:59;7.88;;;3.40;;
66143;SDS011;52947;50.842;6.084;2023-04-24T14:53:27;7.03;;;3.33;;
66143;SDS011;52947;50.842;6.084;2023-04-24T14:55:54;17.58;;;9.52;;
66143;SDS011;52947;50.842;6.084;2023-04-24T14:58:22;115.40;;;60.92;;
66143;SDS011;52947;50.842;6.084;2023-04-24T15:00:50;229.65;;;110.68;;
66143;SDS011;52947;50.842;6.084;2023-04-24T15:03:20;76.40;;;39.30;;
66143;SDS011;52947;50.842;6.084;2023-04-24T15:05:51;13.80;;;8.55;;
66143;SDS011;52947;50.842;6.084;2023-04-24T15:08:19;10.25;;;3.50;;
66143;SDS011;52947;50.842;6.084;2023-04-24T15:10:47;6.47;;;3.13;;
66143;SDS011;52947;50.842;6.084;2023-04-24T15:13:15;6.78;;;3.80;;
66143;SDS011;52947;50.842;6.084;2023-04-24T15:15:43;7.13;;;3.22;;
66143;SDS011;52947;50.842;6.084;2023-04-24T15:18:13;6.25;;;3.15;;
66143;SDS011;52947;50.842;6.084;2023-04-24T15:20:41;6.25;;;2.85;;
66143;SDS011;52947;50.842;6.084;2023-04-24T15:23:10;6.28;;;3.17;;
66143;SDS011;52947;50.842;6.084;2023-04-24T15:25:38;5.65;;;3.03;;
66143;SDS011;52947;50.842;6.084;2023-04-24T15:28:06;4.68;;;3.10;;
66143;SDS011;52947;50.842;6.084;2023-04-24T15:30:35;8.00;;;3.70;;
66143;SDS011;52947;50.842;6.084;2023-04-24T15:33:03;7.82;;;3.33;;
66143;SDS011;52947;50.842;6.084;2023-04-24T15:35:31;7.05;;;3.15;;
66143;SDS011;52947;50.842;6.084;2023-04-24T15:37:59;5.55;;;2.97;;
66143;SDS011;52947;50.842;6.084;2023-04-24T15:40:29;7.03;;;3.10;;
66143;SDS011;52947;50.842;6.084;2023-04-24T15:42:57;7.25;;;2.80;;